createdAt,value
2022-09-12T00:00:51.850Z,998.87
2022-09-12T00:01:51.878Z,998.84
2022-09-12T00:02:51.782Z,998.83
2022-09-12T00:03:51.768Z,998.84
2022-09-12T00:04:51.759Z,998.80
2022-09-12T00:05:51.746Z,998.82
2022-09-12T00:06:51.734Z,998.86
2022-09-12T00:07:51.824Z,998.79
2022-09-12T00:08:51.716Z,998.80
2022-09-12T00:09:51.701Z,998.74
2022-09-12T00:10:51.717Z,998.70
2022-09-12T00:11:51.686Z,998.76
2022-09-12T00:12:51.676Z,998.74
2022-09-12T00:13:51.665Z,998.69
2022-09-12T00:14:51.653Z,998.63
2022-09-12T00:15:51.643Z,998.68
2022-09-12T00:16:51.701Z,998.66
2022-09-12T00:17:51.645Z,998.66
2022-09-12T00:18:51.609Z,998.69
2022-09-12T00:19:51.601Z,998.70
2022-09-12T00:20:51.598Z,998.65
2022-09-12T00:21:51.588Z,998.64
2022-09-12T00:22:51.570Z,998.64
2022-09-12T00:23:51.612Z,998.65
2022-09-12T00:24:51.553Z,998.65
2022-09-12T00:25:51.541Z,998.62
2022-09-12T00:26:51.528Z,998.59
2022-09-12T00:27:51.518Z,998.66
2022-09-12T00:28:51.510Z,998.63
2022-09-12T00:29:51.503Z,998.63
2022-09-12T00:30:51.490Z,998.60
2022-09-12T00:31:51.540Z,998.57
2022-09-12T00:32:51.468Z,998.57
2022-09-12T00:33:51.479Z,998.54
2022-09-12T00:34:51.445Z,998.55
2022-09-12T00:35:51.442Z,998.52
2022-09-12T00:36:51.630Z,998.51
2022-09-12T00:37:51.423Z,998.53
2022-09-12T00:38:51.404Z,998.50
2022-09-12T00:39:51.431Z,998.53
2022-09-12T00:40:51.385Z,998.51
2022-09-12T00:41:51.371Z,998.48
2022-09-12T00:42:51.362Z,998.53
2022-09-12T00:43:51.353Z,998.50
2022-09-12T00:44:51.347Z,998.48
2022-09-12T00:45:51.361Z,998.46
2022-09-12T00:46:51.321Z,998.48
2022-09-12T00:47:51.314Z,998.49
2022-09-12T00:48:51.361Z,998.46
2022-09-12T00:49:57.376Z,998.42
2022-09-12T00:50:51.284Z,998.38
2022-09-12T00:51:51.488Z,998.42
2022-09-12T00:52:51.259Z,998.44
2022-09-12T00:53:51.249Z,998.41
2022-09-12T00:54:51.237Z,998.42
2022-09-12T00:55:51.226Z,998.40
2022-09-12T00:56:51.216Z,998.40
2022-09-12T00:57:51.209Z,998.43
2022-09-12T00:58:51.206Z,998.41
2022-09-12T00:59:51.185Z,998.40
2022-09-12T01:00:51.198Z,998.40
2022-09-12T01:01:51.381Z,998.41
2022-09-12T01:02:51.159Z,998.44
2022-09-12T01:03:51.147Z,998.40
2022-09-12T01:04:51.188Z,998.40
2022-09-12T01:05:51.145Z,998.40
2022-09-12T01:06:51.124Z,998.39
2022-09-12T01:07:51.106Z,998.37
2022-09-12T01:08:51.195Z,998.36
2022-09-12T01:09:51.085Z,998.39
2022-09-12T01:10:51.073Z,998.29
2022-09-12T01:11:51.060Z,998.31
2022-09-12T01:12:51.053Z,998.32
2022-09-12T01:13:51.042Z,998.28
2022-09-12T01:14:51.038Z,998.29
2022-09-12T01:15:51.019Z,998.28
2022-09-12T01:16:51.017Z,998.26
2022-09-12T01:17:51.001Z,998.23
2022-09-12T01:18:56.999Z,998.22
2022-09-12T01:19:50.978Z,998.28
2022-09-12T01:20:50.971Z,998.24
2022-09-12T01:21:50.982Z,998.20
2022-09-12T01:22:50.949Z,998.21
2022-09-12T01:23:50.941Z,998.21
2022-09-12T01:24:50.929Z,998.20
2022-09-12T01:25:50.915Z,998.20
2022-09-12T01:26:50.969Z,998.25
2022-09-12T01:27:50.904Z,998.19
2022-09-12T01:28:50.893Z,998.20
2022-09-12T01:29:50.888Z,998.14
2022-09-12T01:30:50.868Z,998.17
2022-09-12T01:31:50.906Z,998.15
2022-09-12T01:32:50.852Z,998.13
2022-09-12T01:33:50.832Z,998.14
2022-09-12T01:34:50.834Z,998.15
2022-09-12T01:35:50.814Z,998.15
2022-09-12T01:36:50.804Z,998.06
2022-09-12T01:37:50.868Z,998.03
2022-09-12T01:38:50.790Z,998.10
2022-09-12T01:39:50.867Z,998.11
2022-09-12T01:40:50.761Z,998.11
2022-09-12T01:41:50.755Z,998.10
2022-09-12T01:42:50.756Z,998.10
2022-09-12T01:43:50.731Z,998.07
2022-09-12T01:44:50.723Z,998.08
2022-09-12T01:45:50.765Z,998.05
2022-09-12T01:46:50.703Z,998.04
2022-09-12T01:47:50.691Z,998.04
2022-09-12T01:48:50.683Z,998.02
2022-09-12T01:49:50.672Z,998.05
2022-09-12T01:50:50.664Z,998.04
2022-09-12T01:51:50.653Z,998.07
2022-09-12T01:52:50.637Z,998.07
2022-09-12T01:53:56.658Z,998.04
2022-09-12T01:54:50.670Z,998.06
2022-09-12T01:55:50.608Z,998.03
2022-09-12T01:56:50.597Z,998.01
2022-09-12T01:57:50.793Z,998.01
2022-09-12T01:58:50.577Z,998.00
2022-09-12T01:59:50.570Z,997.93
2022-09-12T02:00:56.624Z,997.96
2022-09-12T02:01:50.595Z,997.99
2022-09-12T02:02:50.537Z,997.96
2022-09-12T02:03:50.525Z,997.95
2022-09-12T02:04:50.513Z,997.95
2022-09-12T02:05:50.511Z,997.91
2022-09-12T02:06:50.497Z,997.97
2022-09-12T02:07:50.482Z,997.96
2022-09-12T02:08:50.474Z,997.95
2022-09-12T02:09:50.527Z,997.95
2022-09-12T02:10:50.454Z,997.93
2022-09-12T02:11:50.439Z,997.91
2022-09-12T02:12:50.529Z,997.92
2022-09-12T02:13:50.610Z,997.87
2022-09-12T02:14:50.408Z,997.90
2022-09-12T02:15:50.397Z,997.92
2022-09-12T02:16:50.399Z,997.87
2022-09-12T02:17:50.583Z,997.86
2022-09-12T02:18:50.375Z,997.92
2022-09-12T02:19:50.358Z,997.92
2022-09-12T02:20:50.348Z,997.92
2022-09-12T02:21:50.336Z,997.91
2022-09-12T02:22:50.329Z,997.93
2022-09-12T02:23:50.322Z,997.87
2022-09-12T02:24:50.309Z,997.86
2022-09-12T02:25:50.319Z,997.84
2022-09-12T02:26:50.283Z,997.85
2022-09-12T02:27:50.278Z,997.85
2022-09-12T02:28:50.267Z,997.83
2022-09-12T02:29:50.256Z,997.82
2022-09-12T02:30:50.291Z,997.80
2022-09-12T02:31:50.232Z,997.81
2022-09-12T02:32:50.224Z,997.79
2022-09-12T02:33:50.214Z,997.76
2022-09-12T02:34:50.201Z,997.76
2022-09-12T02:35:50.192Z,997.79
2022-09-12T02:36:50.185Z,997.80
2022-09-12T02:37:50.174Z,997.80
2022-09-12T02:38:50.163Z,997.78
2022-09-12T02:39:50.175Z,997.77
2022-09-12T02:40:50.142Z,997.80
2022-09-12T02:41:50.156Z,997.81
2022-09-12T02:42:56.125Z,997.84
2022-09-12T02:43:50.110Z,997.83
2022-09-12T02:44:50.099Z,997.81
2022-09-12T02:45:50.130Z,997.90
2022-09-12T02:46:50.078Z,997.87
2022-09-12T02:47:50.068Z,997.90
2022-09-12T02:48:50.055Z,997.87
2022-09-12T02:49:50.046Z,997.89
2022-09-12T02:50:50.036Z,997.86
2022-09-12T02:51:50.028Z,997.85
2022-09-12T02:52:50.015Z,997.82
2022-09-12T02:53:50.005Z,997.82
2022-09-12T02:54:49.999Z,997.84
2022-09-12T02:55:49.984Z,997.81
2022-09-12T02:56:49.973Z,997.77
2022-09-12T02:57:49.990Z,997.81
2022-09-12T02:58:49.954Z,997.80
2022-09-12T02:59:49.945Z,997.78
2022-09-12T03:00:55.973Z,997.76
2022-09-12T03:01:49.951Z,997.79
2022-09-12T03:02:49.909Z,997.77
2022-09-12T03:03:49.900Z,997.77
2022-09-12T03:04:49.889Z,997.79
2022-09-12T03:05:49.881Z,997.78
2022-09-12T03:06:49.869Z,997.76
2022-09-12T03:07:49.856Z,997.74
2022-09-12T03:08:49.849Z,997.73
2022-09-12T03:09:49.838Z,997.69
2022-09-12T03:10:49.827Z,997.69
2022-09-12T03:11:49.816Z,997.67
2022-09-12T03:12:49.807Z,997.64
2022-09-12T03:13:49.817Z,997.67
2022-09-12T03:14:49.786Z,997.71
2022-09-12T03:15:49.778Z,997.66
2022-09-12T03:16:49.806Z,997.67
2022-09-12T03:17:49.751Z,997.65
2022-09-12T03:18:49.742Z,997.67
2022-09-12T03:19:49.732Z,997.72
2022-09-12T03:20:49.721Z,997.72
2022-09-12T03:21:49.712Z,997.76
2022-09-12T03:22:51.182Z,997.76
2022-09-12T03:23:49.689Z,997.78
2022-09-12T03:24:49.683Z,997.75
2022-09-12T03:25:49.672Z,997.72
2022-09-12T03:26:49.658Z,997.70
2022-09-12T03:27:49.652Z,997.69
2022-09-12T03:28:49.640Z,997.65
2022-09-12T03:29:49.649Z,997.66
2022-09-12T03:30:49.677Z,997.68
2022-09-12T03:31:49.608Z,997.66
2022-09-12T03:32:49.597Z,997.66
2022-09-12T03:33:49.585Z,997.64
2022-09-12T03:34:49.574Z,997.60
2022-09-12T03:35:49.566Z,997.62
2022-09-12T03:36:49.552Z,997.61
2022-09-12T03:37:49.543Z,997.60
2022-09-12T03:38:49.531Z,997.59
2022-09-12T03:39:49.538Z,997.57
2022-09-12T03:40:54.564Z,997.59
2022-09-12T03:41:49.507Z,997.55
2022-09-12T03:42:49.494Z,997.52
2022-09-12T03:43:55.492Z,997.52
2022-09-12T03:44:49.467Z,997.54
2022-09-12T03:45:49.520Z,997.50
2022-09-12T03:46:49.446Z,997.51
2022-09-12T03:47:49.637Z,997.53
2022-09-12T03:48:49.425Z,997.48
2022-09-12T03:49:49.417Z,997.48
2022-09-12T03:50:49.406Z,997.52
2022-09-12T03:51:49.395Z,997.53
2022-09-12T03:52:49.384Z,997.57
2022-09-12T03:53:49.379Z,997.56
2022-09-12T03:54:49.364Z,997.53
2022-09-12T03:55:49.353Z,997.56
2022-09-12T03:56:49.344Z,997.56
2022-09-12T03:57:49.338Z,997.54
2022-09-12T03:58:49.320Z,997.58
2022-09-12T03:59:49.311Z,997.57
2022-09-12T04:00:49.550Z,997.51
2022-09-12T04:01:49.316Z,997.46
2022-09-12T04:02:49.281Z,997.50
2022-09-12T04:03:49.271Z,997.46
2022-09-12T04:04:49.264Z,997.49
2022-09-12T04:05:49.250Z,997.48
2022-09-12T04:06:49.238Z,997.43
2022-09-12T04:07:49.226Z,997.48
2022-09-12T04:08:49.213Z,997.44
2022-09-12T04:09:49.204Z,997.41
2022-09-12T04:10:49.197Z,997.41
2022-09-12T04:11:49.185Z,997.35
2022-09-12T04:12:55.286Z,997.39
2022-09-12T04:13:49.167Z,997.37
2022-09-12T04:14:49.156Z,997.33
2022-09-12T04:15:49.206Z,997.28
2022-09-12T04:16:49.168Z,997.29
2022-09-12T04:17:49.146Z,997.29
2022-09-12T04:18:49.141Z,997.25
2022-09-12T04:19:49.105Z,997.24
2022-09-12T04:20:49.091Z,997.24
2022-09-12T04:21:49.079Z,997.29
2022-09-12T04:22:49.068Z,997.26
2022-09-12T04:23:49.061Z,997.24
2022-09-12T04:24:49.049Z,997.25
2022-09-12T04:25:49.039Z,997.24
2022-09-12T04:26:49.026Z,997.21
2022-09-12T04:27:49.021Z,997.20
2022-09-12T04:28:49.005Z,997.21
2022-09-12T04:29:49.197Z,997.21
2022-09-12T04:30:49.044Z,997.20
2022-09-12T04:31:48.974Z,997.25
2022-09-12T04:32:48.970Z,997.25
2022-09-12T04:33:48.979Z,997.24
2022-09-12T04:34:48.943Z,997.26
2022-09-12T04:35:48.879Z,997.26
2022-09-12T04:36:48.925Z,997.26
2022-09-12T04:37:48.872Z,997.25
2022-09-12T04:38:54.856Z,997.23
2022-09-12T04:39:49.010Z,997.25
2022-09-12T04:40:48.881Z,997.22
2022-09-12T04:41:48.830Z,997.23
2022-09-12T04:42:48.808Z,997.18
2022-09-12T04:43:48.808Z,997.23
2022-09-12T04:44:48.785Z,997.20
2022-09-12T04:45:48.792Z,997.25
2022-09-12T04:46:48.761Z,997.25
2022-09-12T04:47:48.756Z,997.22
2022-09-12T04:48:50.524Z,997.25
2022-09-12T04:49:48.752Z,997.21
2022-09-12T04:50:48.719Z,997.24
2022-09-12T04:51:48.710Z,997.22
2022-09-12T04:52:48.707Z,997.19
2022-09-12T04:53:48.692Z,997.18
2022-09-12T04:54:48.681Z,997.15
2022-09-12T04:55:48.671Z,997.16
2022-09-12T04:56:48.662Z,997.15
2022-09-12T04:57:48.646Z,997.20
2022-09-12T04:58:48.641Z,997.15
2022-09-12T04:59:48.630Z,997.15
2022-09-12T05:00:48.621Z,997.18
2022-09-12T05:01:48.792Z,997.17
2022-09-12T05:02:48.594Z,997.14
2022-09-12T05:03:48.593Z,997.13
2022-09-12T05:04:48.627Z,997.14
2022-09-12T05:05:48.586Z,997.16
2022-09-12T05:06:48.552Z,997.18
2022-09-12T05:07:48.545Z,997.18
2022-09-12T05:08:48.538Z,997.21
2022-09-12T05:09:48.520Z,997.21
2022-09-12T05:10:48.512Z,997.22
2022-09-12T05:12:05.518Z,997.25
2022-09-12T05:12:49.525Z,997.23
2022-09-12T05:13:48.477Z,997.21
2022-09-12T05:14:48.466Z,997.22
2022-09-12T05:15:48.471Z,997.23
2022-09-12T05:16:49.574Z,997.19
2022-09-12T05:17:48.435Z,997.17
2022-09-12T05:18:48.424Z,997.15
2022-09-12T05:19:48.493Z,997.17
2022-09-12T05:20:48.403Z,997.14
2022-09-12T05:21:48.418Z,997.16
2022-09-12T05:22:48.381Z,997.22
2022-09-12T05:23:48.370Z,997.21
2022-09-12T05:24:50.549Z,997.19
2022-09-12T05:25:48.352Z,997.24
2022-09-12T05:26:48.342Z,997.23
2022-09-12T05:27:50.528Z,997.23
2022-09-12T05:28:48.369Z,997.23
2022-09-12T05:29:48.314Z,997.22
2022-09-12T05:30:48.508Z,997.23
2022-09-12T05:31:48.489Z,997.25
2022-09-12T05:32:48.278Z,997.24
2022-09-12T05:33:48.265Z,997.28
2022-09-12T05:34:48.259Z,997.25
2022-09-12T05:35:48.249Z,997.26
2022-09-12T05:36:48.240Z,997.25
2022-09-12T05:37:48.246Z,997.31
2022-09-12T05:38:48.214Z,997.27
2022-09-12T05:39:48.220Z,997.32
2022-09-12T05:40:48.199Z,997.31
2022-09-12T05:41:48.187Z,997.30
2022-09-12T05:42:48.177Z,997.34
2022-09-12T05:43:48.168Z,997.34
2022-09-12T05:44:48.148Z,997.35
2022-09-12T05:45:48.169Z,997.39
2022-09-12T05:46:48.129Z,997.39
2022-09-12T05:47:48.125Z,997.38
2022-09-12T05:48:50.471Z,997.40
2022-09-12T05:49:48.101Z,997.40
2022-09-12T05:50:48.088Z,997.39
2022-09-12T05:51:48.284Z,997.41
2022-09-12T05:52:48.068Z,997.44
2022-09-12T05:53:48.082Z,997.42
2022-09-12T05:54:48.049Z,997.45
2022-09-12T05:55:48.037Z,997.45
2022-09-12T05:56:48.025Z,997.44
2022-09-12T05:57:48.013Z,997.47
2022-09-12T05:58:48.006Z,997.49
2022-09-12T05:59:47.996Z,997.47
2022-09-12T06:00:47.983Z,997.57
2022-09-12T06:01:48.061Z,997.53
2022-09-12T06:02:47.963Z,997.54
2022-09-12T06:03:47.953Z,997.45
2022-09-12T06:04:47.943Z,997.49
2022-09-12T06:05:50.631Z,997.53
2022-09-12T06:06:48.226Z,997.51
2022-09-12T06:07:47.913Z,997.55
2022-09-12T06:08:48.172Z,997.52
2022-09-12T06:09:47.920Z,997.54
2022-09-12T06:10:47.879Z,997.56
2022-09-12T06:11:47.867Z,997.56
2022-09-12T06:12:48.065Z,997.56
2022-09-12T06:13:47.847Z,997.60
2022-09-12T06:14:47.840Z,997.64
2022-09-12T06:15:47.827Z,997.63
2022-09-12T06:16:48.095Z,997.62
2022-09-12T06:17:51.295Z,997.62
2022-09-12T06:18:47.791Z,997.70
2022-09-12T06:19:47.786Z,997.71
2022-09-12T06:20:47.778Z,997.79
2022-09-12T06:21:47.766Z,997.78
2022-09-12T06:22:47.754Z,997.78
2022-09-12T06:23:47.757Z,997.81
2022-09-12T06:24:47.731Z,997.84
2022-09-12T06:25:47.798Z,997.84
2022-09-12T06:26:47.716Z,997.83
2022-09-12T06:27:47.703Z,997.84
2022-09-12T06:28:47.763Z,997.87
2022-09-12T06:29:47.679Z,997.80
2022-09-12T06:30:47.706Z,997.80
2022-09-12T06:31:47.662Z,997.77
2022-09-12T06:32:47.647Z,997.80
2022-09-12T06:33:47.638Z,997.78
2022-09-12T06:34:47.833Z,997.72
2022-09-12T06:35:47.717Z,997.73
2022-09-12T06:36:47.606Z,997.77
2022-09-12T06:37:47.597Z,997.74
2022-09-12T06:38:47.674Z,997.77
2022-09-12T06:39:47.593Z,997.78
2022-09-12T06:40:47.560Z,997.75
2022-09-12T06:41:47.581Z,997.77
2022-09-12T06:42:47.547Z,997.73
2022-09-12T06:43:47.529Z,997.72
2022-09-12T06:44:47.521Z,997.69
2022-09-12T06:45:47.540Z,997.66
2022-09-12T06:46:47.553Z,997.66
2022-09-12T06:47:47.693Z,997.64
2022-09-12T06:48:47.538Z,997.64
2022-09-12T06:49:47.471Z,997.67
2022-09-12T06:50:47.458Z,997.64
2022-09-12T06:51:47.448Z,997.60
2022-09-12T06:52:47.441Z,997.65
2022-09-12T06:53:47.426Z,997.60
2022-09-12T06:54:47.420Z,997.59
2022-09-12T06:55:47.407Z,997.54
2022-09-12T06:56:47.396Z,997.56
2022-09-12T06:57:47.409Z,997.55
2022-09-12T06:58:47.639Z,997.54
2022-09-12T06:59:53.372Z,997.57
2022-09-12T07:00:47.354Z,997.63
2022-09-12T07:01:47.437Z,997.64
2022-09-12T07:02:47.334Z,997.65
2022-09-12T07:03:47.324Z,997.65
2022-09-12T07:04:47.318Z,997.67
2022-09-12T07:05:47.304Z,997.71
2022-09-12T07:06:47.295Z,997.71
2022-09-12T07:07:47.289Z,997.65
2022-09-12T07:08:47.273Z,997.61
2022-09-12T07:09:47.261Z,997.59
2022-09-12T07:10:47.252Z,997.60
2022-09-12T07:11:47.246Z,997.63
2022-09-12T07:12:47.230Z,997.61
2022-09-12T07:13:47.395Z,997.61
2022-09-12T07:14:47.209Z,997.62
2022-09-12T07:15:47.195Z,997.65
2022-09-12T07:16:47.212Z,997.62
2022-09-12T07:17:47.174Z,997.59
2022-09-12T07:18:47.169Z,997.58
2022-09-12T07:19:47.161Z,997.58
2022-09-12T07:20:47.145Z,997.60
2022-09-12T07:21:47.132Z,997.61
2022-09-12T07:22:47.133Z,997.59
2022-09-12T07:23:47.420Z,997.55
2022-09-12T07:24:47.109Z,997.58
2022-09-12T07:25:47.094Z,997.59
2022-09-12T07:26:47.081Z,997.57
2022-09-12T07:27:51.021Z,997.54
2022-09-12T07:28:47.062Z,997.57
2022-09-12T07:29:47.072Z,997.49
2022-09-12T07:30:47.067Z,997.50
2022-09-12T07:31:47.027Z,997.50
2022-09-12T07:32:47.148Z,997.48
2022-09-12T07:33:51.171Z,997.47
2022-09-12T07:34:48.034Z,997.46
2022-09-12T07:35:46.989Z,997.45
2022-09-12T07:36:46.979Z,997.47
2022-09-12T07:37:46.965Z,997.43
2022-09-12T07:38:47.116Z,997.42
2022-09-12T07:39:53.030Z,997.41
2022-09-12T07:40:46.942Z,997.42
2022-09-12T07:41:47.130Z,997.39
2022-09-12T07:42:46.911Z,997.45
2022-09-12T07:43:46.989Z,997.43
2022-09-12T07:44:46.895Z,997.40
2022-09-12T07:45:46.994Z,997.38
2022-09-12T07:46:46.874Z,997.39
2022-09-12T07:47:46.858Z,997.42
2022-09-12T07:48:46.854Z,997.41
2022-09-12T07:49:46.838Z,997.44
2022-09-12T07:50:46.829Z,997.45
2022-09-12T07:51:46.820Z,997.42
2022-09-12T07:52:46.814Z,997.45
2022-09-12T07:53:46.901Z,997.47
2022-09-12T07:54:46.786Z,997.50
2022-09-12T07:55:46.777Z,997.54
2022-09-12T07:56:46.767Z,997.56
2022-09-12T07:57:46.757Z,997.53
2022-09-12T07:58:46.744Z,997.56
2022-09-12T07:59:52.810Z,997.57
2022-09-12T08:00:47.810Z,997.58
2022-09-12T08:01:46.774Z,997.59
2022-09-12T08:02:46.756Z,997.54
2022-09-12T08:03:46.788Z,997.50
2022-09-12T08:04:46.684Z,997.55
2022-09-12T08:05:46.669Z,997.53
2022-09-12T08:06:46.668Z,997.52
2022-09-12T08:07:46.652Z,997.51
2022-09-12T08:08:46.645Z,997.47
2022-09-12T08:09:46.634Z,997.53
2022-09-12T08:10:46.627Z,997.49
2022-09-12T08:11:46.610Z,997.50
2022-09-12T08:12:46.596Z,997.49
2022-09-12T08:13:49.574Z,997.48
2022-09-12T08:14:46.578Z,997.47
2022-09-12T08:15:46.604Z,997.47
2022-09-12T08:16:46.569Z,997.45
2022-09-12T08:17:46.575Z,997.49
2022-09-12T08:18:46.537Z,997.48
2022-09-12T08:19:46.548Z,997.48
2022-09-12T08:20:46.516Z,997.50
2022-09-12T08:21:46.505Z,997.53
2022-09-12T08:22:46.498Z,997.54
2022-09-12T08:23:46.637Z,997.54
2022-09-12T08:24:46.509Z,997.48
2022-09-12T08:25:46.469Z,997.51
2022-09-12T08:26:46.454Z,997.46
2022-09-12T08:27:46.447Z,997.48
2022-09-12T08:28:46.434Z,997.42
2022-09-12T08:29:46.420Z,997.47
2022-09-12T08:30:46.436Z,997.48
2022-09-12T08:31:46.400Z,997.47
2022-09-12T08:32:46.395Z,997.48
2022-09-12T08:33:46.582Z,997.48
2022-09-12T08:34:46.374Z,997.50
2022-09-12T08:35:46.356Z,997.50
2022-09-12T08:36:46.356Z,997.48
2022-09-12T08:37:46.336Z,997.46
2022-09-12T08:38:46.331Z,997.47
2022-09-12T08:39:46.469Z,997.43
2022-09-12T08:40:46.307Z,997.46
2022-09-12T08:41:46.296Z,997.46
2022-09-12T08:42:46.287Z,997.43
2022-09-12T08:43:46.419Z,997.41
2022-09-12T08:44:46.265Z,997.37
2022-09-12T08:45:46.281Z,997.40
2022-09-12T08:46:47.045Z,997.41
2022-09-12T08:47:46.237Z,997.41
2022-09-12T08:48:46.226Z,997.46
2022-09-12T08:49:46.241Z,997.45
2022-09-12T08:50:49.826Z,997.46
2022-09-12T08:51:46.194Z,997.40
2022-09-12T08:52:46.189Z,997.40
2022-09-12T08:53:46.299Z,997.42
2022-09-12T08:54:46.167Z,997.34
2022-09-12T08:55:46.163Z,997.39
2022-09-12T08:56:46.140Z,997.36
2022-09-12T08:57:46.137Z,997.38
2022-09-12T08:58:46.122Z,997.42
2022-09-12T08:59:46.131Z,997.42
2022-09-12T09:00:46.104Z,997.44
2022-09-12T09:01:46.158Z,997.37
2022-09-12T09:02:46.204Z,997.34
2022-09-12T09:03:46.318Z,997.36
2022-09-12T09:04:46.061Z,997.31
2022-09-12T09:05:46.076Z,997.33
2022-09-12T09:06:46.053Z,997.31
2022-09-12T09:07:46.030Z,997.29
2022-09-12T09:08:46.025Z,997.30
2022-09-12T09:09:46.017Z,997.27
2022-09-12T09:10:46.004Z,997.22
2022-09-12T09:11:46.107Z,997.21
2022-09-12T09:12:45.985Z,997.23
2022-09-12T09:13:46.103Z,997.21
2022-09-12T09:14:51.976Z,997.22
2022-09-12T09:15:46.017Z,997.14
2022-09-12T09:16:45.949Z,997.17
2022-09-12T09:17:45.939Z,997.13
2022-09-12T09:18:45.928Z,997.15
2022-09-12T09:19:50.121Z,997.11
2022-09-12T09:20:45.913Z,997.11
2022-09-12T09:21:45.918Z,997.10
2022-09-12T09:22:45.891Z,997.08
2022-09-12T09:23:45.989Z,997.06
2022-09-12T09:24:45.870Z,996.96
2022-09-12T09:25:45.895Z,996.96
2022-09-12T09:26:45.853Z,996.94
2022-09-12T09:27:45.841Z,996.93
2022-09-12T09:28:45.833Z,996.94
2022-09-12T09:29:45.825Z,996.87
2022-09-12T09:30:45.942Z,996.90
2022-09-12T09:31:45.806Z,996.90
2022-09-12T09:32:45.803Z,996.87
2022-09-12T09:33:46.036Z,996.81
2022-09-12T09:34:45.979Z,996.80
2022-09-12T09:35:45.769Z,996.81
2022-09-12T09:36:45.756Z,996.78
2022-09-12T09:37:45.773Z,996.84
2022-09-12T09:38:45.903Z,996.84
2022-09-12T09:39:45.809Z,996.83
2022-09-12T09:40:51.730Z,996.83
2022-09-12T09:41:45.712Z,996.80
2022-09-12T09:42:45.716Z,996.78
2022-09-12T09:43:45.695Z,996.75
2022-09-12T09:44:45.690Z,996.76
2022-09-12T09:45:52.036Z,996.75
2022-09-12T09:46:45.667Z,996.81
2022-09-12T09:47:45.657Z,996.74
2022-09-12T09:48:45.667Z,996.79
2022-09-12T09:49:45.849Z,996.88
2022-09-12T09:50:45.637Z,996.83
2022-09-12T09:52:34.341Z,996.76
2022-09-12T09:53:28.329Z,996.75
2022-09-12T09:54:28.301Z,996.71
2022-09-12T09:55:28.290Z,996.73
2022-09-12T09:56:34.287Z,996.74
2022-09-12T09:57:28.274Z,996.70
2022-09-12T09:58:28.262Z,996.70
2022-09-12T09:59:28.254Z,996.71
2022-09-12T10:00:28.251Z,996.66
2022-09-12T10:01:28.316Z,996.66
2022-09-12T10:02:28.297Z,996.64
2022-09-12T10:03:28.218Z,996.61
2022-09-12T10:04:28.219Z,996.55
2022-09-12T10:05:28.205Z,996.61
2022-09-12T10:06:34.223Z,996.59
2022-09-12T10:07:28.190Z,996.61
2022-09-12T10:08:28.177Z,996.56
2022-09-12T10:09:28.197Z,996.56
2022-09-12T10:10:28.175Z,996.54
2022-09-12T10:11:28.159Z,996.57
2022-09-12T10:12:28.250Z,996.52
2022-09-12T10:13:28.143Z,996.47
2022-09-12T10:14:28.134Z,996.50
2022-09-12T10:15:28.154Z,996.48
2022-09-12T10:16:28.324Z,996.48
2022-09-12T10:17:33.186Z,996.52
2022-09-12T10:18:30.301Z,996.45
2022-09-12T10:19:34.094Z,996.41
2022-09-12T10:20:28.077Z,996.39
2022-09-12T10:21:28.092Z,996.35
2022-09-12T10:22:34.273Z,996.39
2022-09-12T10:23:34.057Z,996.35
2022-09-12T10:24:28.045Z,996.33
2022-09-12T10:25:28.059Z,996.37
2022-09-12T10:26:28.230Z,996.32
2022-09-12T10:27:28.019Z,996.33
2022-09-12T10:28:28.020Z,996.29
2022-09-12T10:29:28.011Z,996.30
2022-09-12T10:30:28.158Z,996.24
2022-09-12T10:31:27.990Z,996.30
2022-09-12T10:32:30.896Z,996.22
2022-09-12T10:33:27.975Z,996.20
2022-09-12T10:34:27.982Z,996.15
2022-09-12T10:35:27.962Z,996.17
2022-09-12T10:36:27.951Z,996.08
2022-09-12T10:37:34.151Z,996.11
2022-09-12T10:38:27.943Z,996.13
2022-09-12T10:39:27.928Z,996.07
2022-09-12T10:40:27.924Z,996.05
2022-09-12T10:41:33.948Z,996.08
2022-09-12T10:42:27.905Z,996.04
2022-09-12T10:43:27.897Z,996.01
2022-09-12T10:44:27.895Z,996.02
2022-09-12T10:45:28.186Z,996.00
2022-09-12T10:47:08.629Z,995.95
2022-09-12T10:48:07.357Z,995.99
2022-09-12T10:49:08.607Z,995.92
2022-09-12T10:50:02.593Z,995.90
2022-09-12T10:51:02.581Z,995.89
2022-09-12T10:52:02.583Z,995.91
2022-09-12T10:53:02.575Z,995.87
2022-09-12T10:54:04.566Z,995.90
2022-09-12T10:55:02.754Z,995.88
2022-09-12T10:56:02.552Z,995.89
2022-09-12T10:57:02.574Z,995.86
2022-09-12T10:58:04.599Z,995.84
2022-09-12T10:59:02.530Z,995.85
2022-09-12T11:00:02.527Z,995.82
2022-09-12T11:01:02.604Z,995.84
2022-09-12T11:02:02.562Z,995.84
2022-09-12T11:03:02.906Z,995.84
2022-09-12T11:04:02.699Z,995.78
2022-09-12T11:05:02.490Z,995.75
2022-09-12T11:06:08.492Z,995.71
2022-09-12T11:07:02.481Z,995.73
2022-09-12T11:08:02.478Z,995.78
2022-09-12T11:09:02.499Z,995.78
2022-09-12T11:10:02.456Z,995.83
2022-09-12T11:11:02.712Z,995.85
2022-09-12T11:12:02.447Z,995.80
2022-09-12T11:13:02.467Z,995.79
2022-09-12T11:14:02.442Z,995.83
2022-09-12T11:15:02.433Z,995.82
2022-09-12T11:16:02.475Z,995.76
2022-09-12T11:17:02.424Z,995.76
2022-09-12T11:18:02.616Z,995.77
2022-09-12T11:19:02.446Z,995.78
2022-09-12T11:20:02.404Z,995.77
2022-09-12T11:21:02.399Z,995.77
2022-09-12T11:22:02.391Z,995.78
2022-09-12T11:23:02.404Z,995.70
2022-09-12T11:24:02.483Z,995.72
2022-09-12T11:25:08.377Z,995.72
2022-09-12T11:26:41.122Z,995.69
2022-09-12T11:27:41.303Z,995.70
2022-09-12T11:28:44.102Z,995.64
2022-09-12T11:29:43.100Z,995.61
2022-09-12T11:30:41.125Z,995.64
2022-09-12T11:31:41.081Z,995.63
2022-09-12T11:32:41.078Z,995.61
2022-09-12T11:33:43.197Z,995.62
2022-09-12T11:34:41.274Z,995.59
2022-09-12T11:35:41.058Z,995.55
2022-09-12T11:36:41.257Z,995.57
2022-09-12T11:37:41.049Z,995.51
2022-09-12T11:38:43.098Z,995.53
2022-09-12T11:39:41.119Z,995.53
2022-09-12T11:40:41.033Z,995.55
2022-09-12T11:41:41.024Z,995.54
2022-09-12T11:42:41.026Z,995.55
2022-09-12T11:43:41.017Z,995.57
2022-09-12T11:44:41.009Z,995.58
2022-09-12T11:45:41.263Z,995.58
2022-09-12T11:46:41.009Z,995.59
2022-09-12T11:47:40.996Z,995.61
2022-09-12T11:48:40.993Z,995.67
2022-09-12T11:49:40.985Z,995.67
2022-09-12T11:50:40.979Z,995.62
2022-09-12T11:51:40.983Z,995.63
2022-09-12T11:52:40.965Z,995.63
2022-09-12T11:53:47.076Z,995.64
2022-09-12T11:54:40.955Z,995.61
2022-09-12T11:55:40.953Z,995.58
2022-09-12T11:56:40.950Z,995.59
2022-09-12T11:57:40.996Z,995.59
2022-09-12T11:58:40.939Z,995.62
2022-09-12T11:59:40.931Z,995.62
2022-09-12T12:00:40.956Z,995.59
2022-09-12T12:01:45.036Z,995.62
2022-09-12T12:02:42.195Z,995.67
2022-09-12T12:03:46.986Z,995.63
2022-09-12T12:04:46.914Z,995.62
2022-09-12T12:05:40.902Z,995.67
2022-09-12T12:06:47.103Z,995.69
2022-09-12T12:07:44.761Z,995.71
2022-09-12T12:08:40.884Z,995.74
2022-09-12T12:09:40.883Z,995.75
2022-09-12T12:10:46.887Z,995.77
2022-09-12T12:11:40.872Z,995.73
2022-09-12T12:12:46.873Z,995.72
2022-09-12T12:13:41.066Z,995.72
2022-09-12T12:14:40.855Z,995.74
2022-09-12T12:15:40.922Z,995.72
2022-09-12T12:16:40.866Z,995.71
2022-09-12T12:17:40.837Z,995.70
2022-09-12T12:18:47.135Z,995.71
2022-09-12T12:19:41.086Z,995.69
2022-09-12T12:20:40.820Z,995.60
2022-09-12T12:21:46.824Z,995.62
2022-09-12T12:22:40.813Z,995.62
2022-09-12T12:23:46.890Z,995.63
2022-09-12T12:24:40.801Z,995.64
2022-09-12T12:25:40.797Z,995.62
2022-09-12T12:26:40.805Z,995.54
2022-09-12T12:27:40.841Z,995.58
2022-09-12T12:28:40.787Z,995.62
2022-09-12T12:29:46.986Z,995.54
2022-09-12T12:30:40.766Z,995.54